Terminal Aerodrome Forecast
Issued by NWS

Home | Current Version | Previous Version | Text Only | Print | Product List | Glossary On
Versions: 1 2 3 4 5 6 7 8 9 10 11 12 13 14 15 16 17 18 19 20 21 22 23
000
FTUS45 KREV 210500
TAFRNO
TAF
KRNO 210520Z 2106/2206 28011KT P6SM VCSH SCT040 BKN060
     FM210800 32007KT P6SM SCT070
     FM211400 VRB03KT P6SM FEW100 SCT180
     FM212200 34007KT P6SM BKN150=

USA.gov is the U.S. government's official web portal to all federal, state and local government web resources and services.